createdAt,value
2017-12-21T00:02:03.642Z,8.95
2017-12-21T00:04:38.393Z,8.92
2017-12-21T00:07:13.149Z,8.85
2017-12-21T00:09:47.740Z,8.83
2017-12-21T00:12:22.657Z,8.88
2017-12-21T00:14:57.560Z,8.89
2017-12-21T00:17:32.270Z,8.92
2017-12-21T00:20:06.989Z,8.92
2017-12-21T00:22:41.817Z,8.85
2017-12-21T00:25:16.422Z,8.80
2017-12-21T00:27:51.153Z,8.89
2017-12-21T00:30:25.853Z,8.91
2017-12-21T00:33:00.753Z,8.88
2017-12-21T00:35:35.558Z,8.94
2017-12-21T00:38:10.257Z,8.94
2017-12-21T00:40:44.546Z,8.95
2017-12-21T00:43:19.103Z,8.96
2017-12-21T00:46:05.457Z,8.98
2017-12-21T00:48:39.877Z,8.95
2017-12-21T00:51:14.580Z,8.89
2017-12-21T00:53:49.481Z,8.98
2017-12-21T00:56:24.227Z,8.97
2017-12-21T00:58:58.910Z,8.95
2017-12-21T01:01:33.717Z,8.96
2017-12-21T01:04:08.417Z,8.94
2017-12-21T01:06:43.125Z,8.92
2017-12-21T01:09:18.029Z,8.95
2017-12-21T01:11:52.737Z,8.95
2017-12-21T01:14:27.456Z,8.95
2017-12-21T01:17:01.958Z,8.97
2017-12-21T01:19:36.865Z,8.95
2017-12-21T01:22:11.585Z,8.97
2017-12-21T01:24:46.382Z,8.97
2017-12-21T01:27:21.385Z,8.95
2017-12-21T01:29:56.313Z,8.96
2017-12-21T01:32:31.238Z,8.97
2017-12-21T01:35:06.145Z,8.97
2017-12-21T01:37:40.996Z,8.97
2017-12-21T01:40:15.601Z,8.92
2017-12-21T01:42:50.189Z,8.90
2017-12-21T01:45:24.877Z,8.91
2017-12-21T01:47:59.885Z,8.92
2017-12-21T01:50:34.612Z,8.92
2017-12-21T01:53:09.320Z,8.95
2017-12-21T01:55:43.788Z,8.91
2017-12-21T01:58:18.900Z,8.90
2017-12-21T02:00:53.133Z,8.93
2017-12-21T02:03:28.287Z,8.92
2017-12-21T02:06:03.029Z,8.92
2017-12-21T02:08:37.927Z,8.87
2017-12-21T02:11:12.569Z,8.86
2017-12-21T02:13:47.470Z,8.86
2017-12-21T02:16:22.305Z,8.89
2017-12-21T02:18:57.277Z,8.87
2017-12-21T02:21:31.574Z,8.89
2017-12-21T02:24:06.046Z,8.90
2017-12-21T02:26:40.701Z,8.92
2017-12-21T02:29:15.414Z,8.90
2017-12-21T02:31:49.676Z,8.92
2017-12-21T02:34:24.591Z,8.93
2017-12-21T02:36:59.245Z,8.89
2017-12-21T02:39:33.747Z,8.87
2017-12-21T02:42:08.530Z,8.84
2017-12-21T02:44:43.106Z,8.83
2017-12-21T02:47:18.009Z,8.83
2017-12-21T02:49:52.881Z,8.81
2017-12-21T02:52:27.875Z,8.83
2017-12-21T02:55:02.439Z,8.86
2017-12-21T02:57:37.009Z,8.89
2017-12-21T03:00:11.581Z,8.88
2017-12-21T03:26:04.750Z,9.14
2017-12-21T03:28:39.621Z,9.13
2017-12-21T03:31:14.157Z,9.07
2017-12-21T03:33:49.201Z,9.04
2017-12-21T03:36:23.902Z,9.07
2017-12-21T03:38:58.629Z,9.04
2017-12-21T03:41:33.657Z,9.01
2017-12-21T03:44:08.676Z,9.03
2017-12-21T03:46:43.100Z,9.03
2017-12-21T03:49:18.365Z,9.04
2017-12-21T03:51:53.037Z,9.08
2017-12-21T03:54:27.997Z,9.09
2017-12-21T03:57:03.047Z,9.07
2017-12-21T03:59:38.029Z,9.08
2017-12-21T04:02:12.501Z,9.03
2017-12-21T04:04:47.514Z,9.00
2017-12-21T04:07:21.810Z,9.01
2017-12-21T04:09:56.940Z,9.03
2017-12-21T04:12:31.540Z,9.03
2017-12-21T04:15:05.946Z,9.06
2017-12-21T04:17:40.881Z,9.04
2017-12-21T04:20:15.793Z,9.05
2017-12-21T04:22:50.710Z,9.08
2017-12-21T04:25:25.638Z,9.10
2017-12-21T04:28:00.562Z,9.11
2017-12-21T04:30:35.387Z,9.11
2017-12-21T04:33:10.233Z,9.08
2017-12-21T04:35:44.941Z,9.08
2017-12-21T04:38:19.570Z,9.07
2017-12-21T04:40:54.141Z,9.10
2017-12-21T04:43:29.749Z,9.04
2017-12-21T04:46:04.569Z,9.03
2017-12-21T04:48:39.680Z,9.00
2017-12-21T04:51:14.630Z,9.04
2017-12-21T04:53:49.752Z,9.04
2017-12-21T04:56:24.465Z,9.09
2017-12-21T04:58:59.594Z,9.09
2017-12-21T05:01:34.617Z,9.11
2017-12-21T05:04:09.253Z,9.10
2017-12-21T05:06:43.792Z,9.11
2017-12-21T05:09:18.628Z,9.13
2017-12-21T05:11:53.201Z,9.14
2017-12-21T05:14:28.461Z,9.11
2017-12-21T05:17:03.309Z,9.10
2017-12-21T05:19:38.341Z,9.11
2017-12-21T05:22:12.894Z,9.15
2017-12-21T05:24:47.820Z,9.17
2017-12-21T05:27:22.102Z,9.20
2017-12-21T05:29:57.004Z,9.20
2017-12-21T05:32:31.858Z,9.13
2017-12-21T05:35:06.785Z,9.11
2017-12-21T05:37:41.694Z,9.15
2017-12-21T05:40:16.424Z,9.15
2017-12-21T05:42:51.177Z,9.18
2017-12-21T05:45:26.292Z,9.20
2017-12-21T05:48:01.013Z,9.20
2017-12-21T05:50:35.781Z,9.19
2017-12-21T05:53:10.589Z,9.17
2017-12-21T05:55:45.350Z,9.15
2017-12-21T05:58:20.037Z,9.14
2017-12-21T06:00:54.509Z,9.11
2017-12-21T06:03:29.177Z,9.06
2017-12-21T06:06:04.315Z,9.08
2017-12-21T06:08:38.922Z,9.12
2017-12-21T06:11:13.748Z,9.16
2017-12-21T06:13:48.485Z,9.19
2017-12-21T06:16:22.945Z,9.20
2017-12-21T06:18:58.105Z,9.21
2017-12-21T06:21:32.924Z,9.22
2017-12-21T06:24:07.660Z,9.25
2017-12-21T06:26:42.569Z,9.24
2017-12-21T06:29:17.295Z,9.25
2017-12-21T06:31:52.093Z,9.29
2017-12-21T06:34:26.708Z,9.25
2017-12-21T06:37:01.701Z,9.30
2017-12-21T06:39:36.524Z,9.29
2017-12-21T06:42:11.352Z,9.28
2017-12-21T06:44:46.077Z,9.29
2017-12-21T06:47:21.008Z,9.24
2017-12-21T06:49:55.813Z,9.25
2017-12-21T06:52:30.722Z,9.27
2017-12-21T06:55:05.685Z,9.25
2017-12-21T06:57:40.496Z,9.27
2017-12-21T07:00:14.973Z,9.27
2017-12-21T07:02:49.993Z,9.27
2017-12-21T07:05:24.918Z,9.31
2017-12-21T07:07:59.666Z,9.32
2017-12-21T07:10:34.397Z,9.29
2017-12-21T07:13:09.200Z,9.34
2017-12-21T07:15:44.219Z,9.31
2017-12-21T07:18:18.925Z,9.28
2017-12-21T07:20:53.757Z,9.32
2017-12-21T07:23:28.505Z,9.33
2017-12-21T07:26:03.343Z,9.35
2017-12-21T07:28:38.244Z,9.35
2017-12-21T07:31:13.269Z,9.33
2017-12-21T07:33:48.293Z,9.34
2017-12-21T07:36:23.193Z,9.37
2017-12-21T07:38:58.126Z,9.41
2017-12-21T07:41:33.130Z,9.44
2017-12-21T07:44:08.010Z,9.41
2017-12-21T07:46:42.715Z,9.40
2017-12-21T07:49:17.437Z,9.42
2017-12-21T07:51:52.337Z,9.41
2017-12-21T07:54:27.232Z,9.35
2017-12-21T07:57:02.047Z,9.37
2017-12-21T07:59:36.911Z,9.44
2017-12-21T08:02:12.425Z,9.44
2017-12-21T08:04:47.241Z,9.45
2017-12-21T08:07:21.885Z,9.40
2017-12-21T08:09:56.609Z,9.42
2017-12-21T08:12:31.466Z,9.43
2017-12-21T08:15:06.370Z,9.46
2017-12-21T08:17:41.270Z,9.42
2017-12-21T08:20:15.988Z,9.38
2017-12-21T08:22:50.969Z,9.40
2017-12-21T08:25:25.889Z,9.44
2017-12-21T08:28:00.781Z,9.43
2017-12-21T08:30:35.513Z,9.41
2017-12-21T08:33:10.318Z,9.43
2017-12-21T08:35:45.269Z,9.44
2017-12-21T08:38:20.075Z,9.45
2017-12-21T08:40:55.076Z,9.48
2017-12-21T08:43:30.130Z,9.50
2017-12-21T08:46:05.067Z,9.50
2017-12-21T08:48:39.915Z,9.50
2017-12-21T08:51:14.846Z,9.48
2017-12-21T08:53:49.468Z,9.47
2017-12-21T08:56:24.373Z,9.44
2017-12-21T08:58:59.257Z,9.44
2017-12-21T09:01:34.030Z,9.45
2017-12-21T09:04:08.858Z,9.51
2017-12-21T09:06:43.884Z,9.59
2017-12-21T09:09:18.630Z,9.61
2017-12-21T09:11:56.952Z,9.59
2017-12-21T09:14:32.327Z,9.60
2017-12-21T09:17:07.051Z,9.57
2017-12-21T09:19:41.853Z,9.51
2017-12-21T09:22:16.764Z,9.50
2017-12-21T09:24:51.167Z,9.51
2017-12-21T09:27:26.265Z,9.55
2017-12-21T09:30:01.206Z,9.53
2017-12-21T09:32:36.026Z,9.55
2017-12-21T09:35:10.858Z,9.55
2017-12-21T09:37:45.661Z,9.55
2017-12-21T09:40:20.261Z,9.55
2017-12-21T09:42:55.269Z,9.54
2017-12-21T09:45:30.168Z,9.55
2017-12-21T09:48:05.006Z,9.57
2017-12-21T09:50:39.877Z,9.58
2017-12-21T09:53:14.881Z,9.53
2017-12-21T09:55:49.585Z,9.50
2017-12-21T09:58:24.290Z,9.54
2017-12-21T10:00:59.273Z,9.54
2017-12-21T10:03:34.111Z,9.57
2017-12-21T10:06:08.773Z,9.58
2017-12-21T10:08:43.673Z,9.62
2017-12-21T10:11:18.477Z,9.68
2017-12-21T10:13:53.135Z,9.67
2017-12-21T10:16:28.001Z,9.60
2017-12-21T10:19:02.947Z,9.60
2017-12-21T10:21:37.708Z,9.55
2017-12-21T10:24:12.425Z,9.56
2017-12-21T10:26:47.349Z,9.54
2017-12-21T10:29:22.144Z,9.60
2017-12-21T10:31:57.049Z,9.63
2017-12-21T10:34:31.784Z,9.59
2017-12-21T10:37:06.607Z,9.60
2017-12-21T10:39:41.034Z,9.65
2017-12-21T10:42:16.042Z,9.69
2017-12-21T10:44:50.958Z,9.70
2017-12-21T10:47:25.805Z,9.70
2017-12-21T10:50:00.737Z,9.72
2017-12-21T10:52:35.593Z,9.70
2017-12-21T10:55:10.431Z,9.68
2017-12-21T10:57:45.272Z,9.67
2017-12-21T11:00:20.118Z,9.70
2017-12-21T11:02:54.953Z,9.74
2017-12-21T11:05:29.967Z,9.79
2017-12-21T11:08:04.591Z,9.83
2017-12-21T11:10:39.314Z,9.80
2017-12-21T11:13:13.685Z,9.76
2017-12-21T11:15:48.702Z,9.81
2017-12-21T11:18:23.226Z,9.88
2017-12-21T11:20:58.026Z,9.88
2017-12-21T11:23:32.297Z,9.88
2017-12-21T11:26:06.981Z,9.91
2017-12-21T11:28:42.062Z,9.97
2017-12-21T11:31:16.973Z,10.04
2017-12-21T11:33:51.569Z,10.12
2017-12-21T11:36:26.609Z,10.15
2017-12-21T11:39:01.322Z,10.08
2017-12-21T11:41:36.164Z,10.00
2017-12-21T11:44:10.966Z,9.98
2017-12-21T11:46:45.720Z,10.04
2017-12-21T11:49:20.570Z,10.01
2017-12-21T11:51:55.269Z,10.01
2017-12-21T11:54:30.099Z,10.07
2017-12-21T11:57:04.801Z,10.09
2017-12-21T11:59:39.511Z,10.06
2017-12-21T12:02:14.338Z,10.05
2017-12-21T12:04:49.137Z,10.06
2017-12-21T12:07:24.216Z,10.09
2017-12-21T12:09:59.188Z,10.14
2017-12-21T12:12:34.025Z,10.14
2017-12-21T12:15:08.925Z,10.19
2017-12-21T12:17:43.901Z,10.20
2017-12-21T12:20:18.955Z,10.14
2017-12-21T12:22:53.820Z,10.14
2017-12-21T12:25:28.648Z,10.18
2017-12-21T12:28:03.649Z,10.17
2017-12-21T12:30:38.284Z,10.09
2017-12-21T12:33:13.284Z,10.07
2017-12-21T12:35:48.213Z,10.05
2017-12-21T12:38:22.957Z,10.08
2017-12-21T12:40:57.668Z,10.13
2017-12-21T12:43:32.523Z,10.13
2017-12-21T12:46:07.120Z,10.09
2017-12-21T12:48:42.092Z,10.08
2017-12-21T12:51:17.017Z,10.06
2017-12-21T12:53:51.636Z,10.04
2017-12-21T12:56:26.506Z,10.04
2017-12-21T12:59:01.476Z,10.01
2017-12-21T13:01:36.608Z,10.02
2017-12-21T13:04:11.372Z,10.00
2017-12-21T13:06:46.285Z,10.01
2017-12-21T13:09:21.141Z,10.05
2017-12-21T13:11:55.897Z,10.09
2017-12-21T13:14:30.744Z,10.08
2017-12-21T13:17:05.640Z,10.09
2017-12-21T13:19:40.448Z,10.05
2017-12-21T13:22:15.510Z,10.05
2017-12-21T13:24:50.433Z,10.10
2017-12-21T13:27:25.518Z,10.09
2017-12-21T13:30:02.463Z,10.03
2017-12-21T13:32:37.040Z,9.99
2017-12-21T13:35:11.860Z,10.04
2017-12-21T13:37:46.580Z,10.00
2017-12-21T13:40:21.392Z,9.99
2017-12-21T13:42:56.644Z,10.03
2017-12-21T13:45:31.471Z,10.04
2017-12-21T13:48:06.352Z,10.03
2017-12-21T13:50:42.485Z,10.05
2017-12-21T13:53:17.771Z,10.02
2017-12-21T13:55:51.863Z,10.01
2017-12-21T13:58:26.659Z,9.98
2017-12-21T14:01:01.368Z,9.94
2017-12-21T14:03:36.201Z,9.89
2017-12-21T14:06:11.251Z,9.90
2017-12-21T14:08:46.093Z,9.83
2017-12-21T14:11:21.249Z,9.84
2017-12-21T14:13:56.191Z,9.86
2017-12-21T14:16:31.176Z,9.89
2017-12-21T14:19:06.048Z,9.93
2017-12-21T14:21:41.341Z,9.99
2017-12-21T14:24:16.675Z,10.04
2017-12-21T14:26:51.692Z,10.01
2017-12-21T14:29:26.684Z,9.95
2017-12-21T14:32:01.640Z,9.92
2017-12-21T14:34:36.521Z,9.93
2017-12-21T14:37:11.838Z,9.91
2017-12-21T14:39:46.888Z,9.94
2017-12-21T14:42:21.432Z,9.95
2017-12-21T14:44:56.265Z,9.94
2017-12-21T14:47:30.720Z,9.95
2017-12-21T14:50:05.644Z,9.92
2017-12-21T14:52:40.537Z,10.00
2017-12-21T14:55:15.452Z,9.97
2017-12-21T14:57:49.972Z,9.97
2017-12-21T15:00:24.680Z,9.94
2017-12-21T15:02:59.820Z,9.97
2017-12-21T15:05:34.461Z,9.97
2017-12-21T15:08:09.474Z,9.98
2017-12-21T15:10:44.426Z,9.99
2017-12-21T15:13:19.425Z,9.94
2017-12-21T15:15:54.527Z,9.92
2017-12-21T15:18:29.256Z,9.97
2017-12-21T15:21:04.164Z,10.00
2017-12-21T15:23:39.210Z,9.91
2017-12-21T15:26:14.239Z,9.95
2017-12-21T15:28:49.345Z,9.90
2017-12-21T15:31:24.179Z,9.87
2017-12-21T15:33:59.049Z,9.90
2017-12-21T15:36:34.293Z,9.84
2017-12-21T15:39:09.008Z,9.86
2017-12-21T15:41:43.823Z,9.87
2017-12-21T15:44:18.786Z,9.86
2017-12-21T15:46:54.021Z,9.88
2017-12-21T15:49:28.831Z,9.90
2017-12-21T15:52:03.760Z,9.92
2017-12-21T15:54:38.569Z,9.90
2017-12-21T15:57:13.544Z,9.87
2017-12-21T15:59:48.348Z,9.86
2017-12-21T16:02:23.304Z,9.81
2017-12-21T16:04:58.200Z,9.81
2017-12-21T16:07:33.027Z,9.78
2017-12-21T16:10:07.694Z,9.76
2017-12-21T16:12:51.798Z,9.76
2017-12-21T16:15:26.384Z,9.79
2017-12-21T16:18:01.320Z,9.76
2017-12-21T16:20:36.632Z,9.72
2017-12-21T16:23:11.654Z,9.70
2017-12-21T16:25:46.888Z,9.69
2017-12-21T16:28:22.325Z,9.68
2017-12-21T16:30:57.407Z,9.66
2017-12-21T16:33:32.455Z,9.67
2017-12-21T16:36:07.768Z,9.67
2017-12-21T16:38:43.404Z,9.74
2017-12-21T16:41:18.024Z,9.77
2017-12-21T16:43:52.461Z,9.80
2017-12-21T16:46:27.375Z,9.81
2017-12-21T16:49:02.356Z,9.81
2017-12-21T16:51:37.076Z,9.82
2017-12-21T16:54:11.553Z,9.85
2017-12-21T16:56:46.460Z,9.83
2017-12-21T16:59:21.529Z,9.79
2017-12-21T17:01:56.348Z,9.74
2017-12-21T17:04:31.212Z,9.74
2017-12-21T17:07:06.024Z,9.76
2017-12-21T17:09:41.060Z,9.71
2017-12-21T17:12:16.331Z,9.75
2017-12-21T17:14:51.272Z,9.70
2017-12-21T17:17:25.671Z,9.57
2017-12-21T17:20:00.546Z,9.57
2017-12-21T17:22:35.361Z,9.59
2017-12-21T17:25:09.960Z,9.64
2017-12-21T17:27:44.936Z,9.69
2017-12-21T17:30:19.620Z,9.73
2017-12-21T17:32:54.352Z,9.76
2017-12-21T17:35:28.965Z,9.76
2017-12-21T17:38:03.784Z,9.75
2017-12-21T17:40:38.685Z,9.76
2017-12-21T17:43:13.864Z,9.77
2017-12-21T17:45:49.024Z,9.77
2017-12-21T17:48:23.480Z,9.72
2017-12-21T17:50:58.395Z,9.71
2017-12-21T17:53:33.252Z,9.66
2017-12-21T17:56:08.256Z,9.67
2017-12-21T17:58:43.267Z,9.67
2017-12-21T18:01:18.541Z,9.60
2017-12-21T18:03:53.272Z,9.62
2017-12-21T18:06:28.277Z,9.57
2017-12-21T18:09:03.087Z,9.49
2017-12-21T18:11:38.408Z,9.44
2017-12-21T18:14:13.186Z,9.45
2017-12-21T18:16:48.208Z,9.43
2017-12-21T18:19:23.211Z,9.37
2017-12-21T18:21:58.469Z,9.37
2017-12-21T18:24:33.365Z,9.36
2017-12-21T18:27:08.020Z,9.33
2017-12-21T18:29:43.028Z,9.31
2017-12-21T18:32:18.248Z,9.29
2017-12-21T18:34:53.371Z,9.24
2017-12-21T18:37:28.285Z,9.22
2017-12-21T18:40:03.371Z,9.19
2017-12-21T18:42:38.036Z,9.18
2017-12-21T18:45:12.784Z,9.15
2017-12-21T18:47:47.607Z,9.14
2017-12-21T18:50:22.526Z,9.15
2017-12-21T18:52:56.613Z,9.14
2017-12-21T18:55:31.737Z,9.06
2017-12-21T18:58:06.557Z,9.03
2017-12-21T19:00:41.083Z,8.99
2017-12-21T19:03:15.884Z,9.01
2017-12-21T19:05:50.944Z,9.01
2017-12-21T19:08:25.733Z,8.99
2017-12-21T19:11:00.322Z,8.96
2017-12-21T19:13:35.278Z,8.99
2017-12-21T19:16:10.184Z,8.99
2017-12-21T19:18:45.011Z,9.03
2017-12-21T19:21:19.938Z,9.06
2017-12-21T19:23:54.466Z,9.02
2017-12-21T19:26:28.860Z,8.95
2017-12-21T19:29:03.432Z,8.90
2017-12-21T19:31:38.727Z,8.85
2017-12-21T19:34:13.696Z,8.80
2017-12-21T19:36:48.149Z,8.76
2017-12-21T19:39:23.240Z,8.71
2017-12-21T19:41:58.278Z,8.69
2017-12-21T19:44:33.469Z,8.71
2017-12-21T19:47:08.269Z,8.69
2017-12-21T19:49:43.703Z,8.70
2017-12-21T19:52:19.049Z,8.71
2017-12-21T19:54:54.076Z,8.72
2017-12-21T19:57:28.981Z,8.67
2017-12-21T20:00:03.593Z,8.63
2017-12-21T20:02:38.532Z,8.63
2017-12-21T20:05:13.584Z,8.63
2017-12-21T20:07:48.376Z,8.62
2017-12-21T20:10:23.008Z,8.65
2017-12-21T20:12:58.335Z,8.69
2017-12-21T20:15:33.644Z,8.67
2017-12-21T20:18:08.464Z,8.65
2017-12-21T20:20:43.216Z,8.61
2017-12-21T20:23:17.334Z,8.68
2017-12-21T20:25:51.929Z,8.63
2017-12-21T20:28:26.734Z,8.69
2017-12-21T20:31:02.086Z,8.71
2017-12-21T20:33:36.929Z,8.71
2017-12-21T20:36:11.874Z,8.63
2017-12-21T20:38:47.220Z,8.64
2017-12-21T20:41:21.499Z,8.56
2017-12-21T20:44:05.860Z,8.56
2017-12-21T20:46:40.868Z,8.58
2017-12-21T20:49:16.185Z,8.57
2017-12-21T20:51:51.086Z,8.50
2017-12-21T20:54:26.339Z,8.51
2017-12-21T20:57:01.694Z,8.50
2017-12-21T20:59:37.022Z,8.49
2017-12-21T21:02:12.120Z,8.49
2017-12-21T21:04:46.841Z,8.46
2017-12-21T21:07:21.229Z,8.37
2017-12-21T21:09:56.079Z,8.35
2017-12-21T21:12:30.895Z,8.33
2017-12-21T21:15:05.373Z,8.33
2017-12-21T21:17:40.321Z,8.39
2017-12-21T21:20:15.336Z,8.37
2017-12-21T21:22:50.609Z,8.33
2017-12-21T21:25:25.961Z,8.34
2017-12-21T21:28:00.480Z,8.37
2017-12-21T21:30:35.186Z,8.34
2017-12-21T21:33:10.089Z,8.31
2017-12-21T21:35:45.201Z,8.32
2017-12-21T21:38:20.043Z,8.35
2017-12-21T21:40:54.808Z,8.32
2017-12-21T21:43:29.788Z,8.29
2017-12-21T21:46:05.033Z,8.24
2017-12-21T21:48:39.517Z,8.18
2017-12-21T21:51:14.258Z,8.14
2017-12-21T21:53:49.502Z,8.13
2017-12-21T21:56:24.319Z,8.15
2017-12-21T21:58:59.773Z,8.15
2017-12-21T22:01:34.751Z,8.10
2017-12-21T22:04:09.237Z,8.07
2017-12-21T22:06:43.990Z,8.09
2017-12-21T22:09:18.750Z,8.01
2017-12-21T22:11:54.111Z,8.01
2017-12-21T22:14:28.771Z,7.98
2017-12-21T22:17:03.723Z,7.98
2017-12-21T22:19:37.964Z,7.95
2017-12-21T22:22:12.972Z,7.94
2017-12-21T22:24:47.752Z,7.96
2017-12-21T22:27:22.404Z,7.99
2017-12-21T22:29:57.208Z,8.04
2017-12-21T22:32:32.128Z,8.06
2017-12-21T22:35:06.360Z,8.01
2017-12-21T22:37:41.532Z,8.04
2017-12-21T22:40:16.608Z,8.07
2017-12-21T22:42:51.545Z,8.05
2017-12-21T22:45:26.502Z,8.03
2017-12-21T22:48:01.864Z,7.91
2017-12-21T22:50:37.114Z,7.87
2017-12-21T22:53:11.612Z,7.91
2017-12-21T22:55:46.875Z,7.91
2017-12-21T22:58:22.129Z,7.89
2017-12-21T23:00:57.077Z,7.96
2017-12-21T23:03:31.869Z,7.95
2017-12-21T23:06:06.837Z,7.94
2017-12-21T23:08:42.156Z,7.92
2017-12-21T23:11:17.493Z,7.94
2017-12-21T23:13:52.419Z,7.89
2017-12-21T23:16:27.789Z,7.92
2017-12-21T23:19:02.745Z,7.99
2017-12-21T23:21:37.969Z,7.97
2017-12-21T23:24:12.690Z,7.95
2017-12-21T23:26:47.365Z,7.96
2017-12-21T23:29:22.504Z,8.02
2017-12-21T23:31:57.906Z,8.01
2017-12-21T23:34:33.239Z,7.96
2017-12-21T23:37:08.008Z,7.94
2017-12-21T23:39:43.004Z,7.93
2017-12-21T23:42:18.032Z,7.96
2017-12-21T23:44:53.351Z,7.98
2017-12-21T23:47:28.192Z,7.96
2017-12-21T23:50:03.011Z,7.99
2017-12-21T23:52:37.646Z,8.01
2017-12-21T23:55:12.552Z,8.00
2017-12-21T23:57:47.752Z,8.02
